createdAt,value
2022-08-03T00:00:21.701Z,58.23
2022-08-03T00:03:00.980Z,58.50
2022-08-03T00:06:04.530Z,58.42
2022-08-03T00:09:05.569Z,58.54
2022-08-03T00:11:46.394Z,58.66
2022-08-03T00:14:24.676Z,59.19
2022-08-03T00:16:54.676Z,58.77
2022-08-03T00:19:22.519Z,58.66
2022-08-03T00:21:50.022Z,58.94
2022-08-03T00:24:22.456Z,59.42
2022-08-03T00:26:50.021Z,58.89
2022-08-03T00:29:22.216Z,59.38
2022-08-03T00:32:00.181Z,58.96
2022-08-03T00:34:57.179Z,58.88
2022-08-03T00:37:22.504Z,58.81
2022-08-03T00:40:15.449Z,58.61
2022-08-03T00:42:51.702Z,58.75
2022-08-03T00:45:24.939Z,58.68
2022-08-03T00:47:55.694Z,58.53
2022-08-03T00:50:25.401Z,58.45
2022-08-03T00:52:54.752Z,58.27
2022-08-03T00:55:26.561Z,58.25
2022-08-03T00:57:54.453Z,58.32
2022-08-03T01:00:24.558Z,58.50
2022-08-03T01:02:52.849Z,58.13
2022-08-03T01:05:24.069Z,58.64
2022-08-03T01:08:23.125Z,58.77
2022-08-03T01:11:16.740Z,59.25
2022-08-03T01:14:18.921Z,59.09
2022-08-03T01:17:10.313Z,59.14
2022-08-03T01:19:47.179Z,58.97
2022-08-03T01:22:41.498Z,59.44
2022-08-03T01:25:41.623Z,59.30
2022-08-03T01:28:46.837Z,59.41
2022-08-03T01:31:21.253Z,59.17
2022-08-03T01:34:03.251Z,59.24
2022-08-03T01:36:38.755Z,59.52
2022-08-03T01:39:12.014Z,59.30
2022-08-03T01:41:51.269Z,60.14
2022-08-03T01:44:29.688Z,59.66
2022-08-03T01:47:01.418Z,60.16
2022-08-03T01:49:34.162Z,59.71
2022-08-03T01:52:09.989Z,59.38
2022-08-03T01:54:45.626Z,59.61
2022-08-03T01:57:14.597Z,59.51
2022-08-03T01:59:47.352Z,59.41
2022-08-03T02:02:32.719Z,59.36
2022-08-03T02:05:10.750Z,59.35
2022-08-03T02:07:42.339Z,59.17
2022-08-03T02:10:12.414Z,59.08
2022-08-03T02:12:45.876Z,58.92
2022-08-03T02:15:16.859Z,58.93
2022-08-03T02:17:55.182Z,58.89
2022-08-03T02:20:22.728Z,58.72
2022-08-03T02:23:02.407Z,58.50
2022-08-03T02:25:35.800Z,58.80
2022-08-03T02:28:10.943Z,58.38
2022-08-03T02:30:41.503Z,58.60
2022-08-03T02:33:13.789Z,58.73
2022-08-03T02:36:11.947Z,58.39
2022-08-03T02:38:55.901Z,58.15
2022-08-03T02:41:31.131Z,58.28
2022-08-03T02:44:11.165Z,58.00
2022-08-03T02:46:43.378Z,58.00
2022-08-03T02:49:40.761Z,58.12
2022-08-03T02:52:03.199Z,58.13
2022-08-03T02:54:32.394Z,58.29
2022-08-03T02:57:02.858Z,57.88
2022-08-03T02:59:32.520Z,58.04
2022-08-03T03:02:02.095Z,57.66
2022-08-03T03:04:33.569Z,57.83
2022-08-03T03:07:04.429Z,57.60
2022-08-03T03:09:40.530Z,57.90
2022-08-03T03:12:16.781Z,57.98
2022-08-03T03:14:47.358Z,57.76
2022-08-03T03:17:17.451Z,57.65
2022-08-03T03:19:45.943Z,57.33
2022-08-03T03:22:15.569Z,57.34
2022-08-03T03:24:46.310Z,57.42
2022-08-03T03:27:16.922Z,57.48
2022-08-03T03:29:44.927Z,57.14
2022-08-03T03:32:12.882Z,57.21
2022-08-03T03:34:40.700Z,57.17
2022-08-03T03:37:11.648Z,56.62
2022-08-03T03:39:39.369Z,56.84
2022-08-03T03:42:09.697Z,56.55
2022-08-03T03:44:37.522Z,56.55
2022-08-03T03:47:05.593Z,56.40
2022-08-03T03:49:33.049Z,56.33
2022-08-03T03:52:00.536Z,56.37
2022-08-03T03:54:40.069Z,56.74
2022-08-03T03:57:07.374Z,55.55
2022-08-03T03:59:44.072Z,55.77
2022-08-03T04:02:12.428Z,55.97
2022-08-03T04:06:02.943Z,55.78
2022-08-03T04:10:14.751Z,56.19
2022-08-03T04:16:32.821Z,55.63
2022-08-03T04:22:52.950Z,55.12
2022-08-03T04:26:12.387Z,54.69
2022-08-03T04:29:25.008Z,54.97
2022-08-03T04:36:15.242Z,54.42
2022-08-03T04:44:21.025Z,53.81
2022-08-03T04:47:22.561Z,52.96
2022-08-03T04:57:54.800Z,52.26
2022-08-03T05:09:50.263Z,51.43
2022-08-03T05:12:34.022Z,50.53
2022-08-03T05:23:10.826Z,48.48
2022-08-03T05:59:37.048Z,32.87
2022-08-03T06:11:11.956Z,29.97
2022-08-03T06:14:35.236Z,30.00
2022-08-03T06:20:57.082Z,27.98
2022-08-03T06:23:55.699Z,28.42
2022-08-03T06:26:49.026Z,27.65
2022-08-03T06:29:50.577Z,27.11
2022-08-03T06:34:35.442Z,25.91
2022-08-03T06:46:10.690Z,26.76
2022-08-03T21:43:30.947Z,48.72
2022-08-03T22:44:12.268Z,51.33
2022-08-03T22:47:53.239Z,51.86
2022-08-03T22:50:57.478Z,52.04
2022-08-03T22:54:00.756Z,51.70
2022-08-03T22:56:57.061Z,51.69
2022-08-03T22:59:41.232Z,52.19
2022-08-03T23:02:26.700Z,52.34
2022-08-03T23:05:05.208Z,52.77
2022-08-03T23:07:43.384Z,52.79
2022-08-03T23:10:25.555Z,53.15
2022-08-03T23:12:58.092Z,53.58
2022-08-03T23:16:03.812Z,54.19
2022-08-03T23:18:48.220Z,54.79
2022-08-03T23:21:53.960Z,54.51
2022-08-03T23:24:29.325Z,54.47
2022-08-03T23:27:11.717Z,55.08
2022-08-03T23:29:46.649Z,55.11
2022-08-03T23:32:14.807Z,55.44
2022-08-03T23:35:07.762Z,55.94
2022-08-03T23:38:04.297Z,56.10
2022-08-03T23:40:42.124Z,56.41
2022-08-03T23:43:16.745Z,56.64
2022-08-03T23:46:12.961Z,57.08
2022-08-03T23:48:51.041Z,56.81
2022-08-03T23:51:55.338Z,58.08
2022-08-03T23:54:45.711Z,58.56
2022-08-03T23:58:02.991Z,58.74
